createdAt,value
2018-11-25T00:04:33.930Z,9.73
2018-11-25T00:09:38.433Z,9.60
2018-11-25T00:14:43.380Z,7.90
2018-11-25T00:19:48.435Z,8.80
2018-11-25T00:24:53.006Z,9.80
2018-11-25T00:29:57.900Z,9.27
2018-11-25T00:35:02.878Z,8.20
2018-11-25T00:40:09.796Z,8.97
2018-11-25T00:45:16.830Z,8.47
2018-11-25T00:50:21.473Z,8.73
2018-11-25T00:55:25.971Z,8.53
2018-11-25T01:00:30.497Z,8.73
2018-11-25T01:05:35.348Z,8.07
2018-11-25T01:10:39.963Z,8.10
2018-11-25T01:15:44.447Z,7.60
2018-11-25T01:20:49.142Z,9.10
2018-11-25T01:25:54.505Z,7.33
2018-11-25T01:30:59.070Z,8.87
2018-11-25T01:36:03.542Z,6.77
2018-11-25T01:41:08.119Z,7.50
2018-11-25T01:46:12.638Z,8.07
2018-11-25T01:51:17.252Z,8.03
2018-11-25T01:56:21.900Z,7.67
2018-11-25T02:01:26.483Z,8.07
2018-11-25T02:06:30.983Z,7.93
2018-11-25T02:11:35.602Z,7.57
2018-11-25T02:16:40.147Z,7.47
2018-11-25T02:21:44.678Z,6.93
2018-11-25T02:26:49.057Z,7.40
2018-11-25T02:31:53.547Z,7.37
2018-11-25T02:36:58.083Z,7.57
2018-11-25T02:42:02.618Z,6.83
2018-11-25T02:47:06.988Z,7.40
2018-11-25T02:52:12.090Z,7.27
2018-11-25T02:57:20.775Z,7.20
2018-11-25T03:02:25.332Z,8.23
2018-11-25T03:07:29.564Z,6.43
2018-11-25T03:12:34.369Z,6.47
2018-11-25T03:17:39.053Z,6.43
2018-11-25T03:22:43.394Z,6.40
2018-11-25T03:27:48.016Z,7.00
2018-11-25T03:32:53.959Z,6.87
2018-11-25T03:37:58.311Z,6.30
2018-11-25T03:43:02.718Z,5.60
2018-11-25T03:48:07.332Z,5.87
2018-11-25T03:53:11.790Z,5.80
2018-11-25T03:58:16.092Z,6.73
2018-11-25T04:03:20.677Z,5.47
2018-11-25T04:08:25.226Z,5.67
2018-11-25T04:13:30.431Z,5.60
2018-11-25T04:18:34.980Z,5.63
2018-11-25T04:23:39.517Z,6.00
2018-11-25T04:28:44.608Z,5.60
2018-11-25T04:33:49.263Z,6.07
2018-11-25T04:38:54.005Z,5.23
2018-11-25T04:43:58.519Z,5.93
2018-11-25T04:49:03.735Z,5.67
2018-11-25T04:54:08.218Z,5.87
2018-11-25T04:59:12.733Z,6.50
2018-11-25T05:04:17.391Z,5.43
2018-11-25T05:09:22.061Z,5.83
2018-11-25T05:14:26.702Z,5.93
2018-11-25T05:19:31.898Z,5.83
2018-11-25T05:24:36.558Z,6.97
2018-11-25T05:29:40.970Z,7.93
2018-11-25T05:34:45.514Z,7.87
2018-11-25T05:39:49.852Z,7.83
2018-11-25T05:44:54.268Z,8.63
2018-11-25T05:49:59.542Z,8.30
2018-11-25T05:55:03.931Z,9.27
2018-11-25T06:00:23.123Z,7.93
2018-11-25T06:05:27.929Z,9.67
2018-11-25T06:10:32.491Z,8.33
2018-11-25T06:15:36.820Z,8.13
2018-11-25T06:20:41.509Z,7.47
2018-11-25T06:25:46.150Z,8.17
2018-11-25T06:30:50.637Z,7.57
2018-11-25T06:35:55.206Z,7.77
2018-11-25T06:40:59.701Z,6.57
2018-11-25T06:46:06.260Z,7.60
2018-11-25T06:51:11.185Z,8.13
2018-11-25T06:56:15.913Z,8.13
2018-11-25T07:01:20.329Z,7.60
2018-11-25T07:06:25.838Z,6.93
2018-11-25T07:11:30.645Z,7.83
2018-11-25T07:16:35.452Z,8.33
2018-11-25T07:21:40.030Z,6.43
2018-11-25T07:26:45.279Z,7.83
2018-11-25T07:31:49.768Z,7.93
2018-11-25T07:36:56.673Z,6.53
2018-11-25T07:42:01.316Z,8.23
2018-11-25T07:47:05.829Z,8.30
2018-11-25T07:52:10.706Z,7.43
2018-11-25T07:57:14.927Z,6.90
2018-11-25T08:02:19.261Z,7.13
2018-11-25T08:07:23.864Z,7.90
2018-11-25T08:12:28.534Z,7.23
2018-11-25T08:17:33.166Z,7.33
2018-11-25T08:22:39.024Z,7.70
2018-11-25T08:27:43.549Z,8.67
2018-11-25T08:32:48.648Z,7.43
2018-11-25T08:37:53.339Z,7.27
2018-11-25T08:42:57.850Z,7.97
2018-11-25T08:48:02.266Z,6.80
2018-11-25T08:53:06.874Z,8.20
2018-11-25T08:58:15.609Z,8.60
2018-11-25T09:03:20.072Z,8.97
2018-11-25T09:08:24.994Z,8.27
2018-11-25T09:13:29.592Z,8.33
2018-11-25T09:18:35.116Z,8.63
2018-11-25T09:23:40.853Z,7.63
2018-11-25T09:28:47.083Z,8.50
2018-11-25T09:33:51.722Z,8.50
2018-11-25T09:38:56.306Z,9.20
2018-11-25T09:44:00.733Z,9.93
2018-11-25T09:49:05.730Z,8.90
2018-11-25T09:54:10.186Z,8.77
2018-11-25T09:59:14.544Z,12.70
2018-11-25T10:04:18.808Z,10.67
2018-11-25T10:09:23.663Z,10.63
2018-11-25T10:14:28.190Z,8.20
2018-11-25T10:19:32.913Z,5.80
2018-11-25T10:24:37.377Z,6.30
2018-11-25T10:29:42.163Z,6.40
2018-11-25T10:34:46.960Z,5.83
2018-11-25T10:39:51.359Z,5.40
2018-11-25T10:44:55.716Z,5.43
2018-11-25T10:50:00.063Z,5.30
2018-11-25T10:55:05.103Z,4.95
2018-11-25T11:00:27.921Z,4.35
2018-11-25T11:05:38.116Z,4.87
2018-11-25T11:10:42.643Z,4.20
2018-11-25T11:15:47.138Z,4.72
2018-11-25T11:20:51.956Z,5.83
2018-11-25T11:25:56.460Z,5.25
2018-11-25T11:31:01.181Z,5.40
2018-11-25T11:36:06.685Z,6.67
2018-11-25T11:41:12.058Z,5.87
2018-11-25T11:46:16.749Z,5.47
2018-11-25T11:51:25.808Z,4.63
2018-11-25T11:56:26.147Z,5.73
2018-11-25T12:01:31.387Z,5.43
2018-11-25T12:06:36.105Z,5.47
2018-11-25T12:11:40.609Z,6.43
2018-11-25T12:16:46.786Z,6.20
2018-11-25T12:21:58.054Z,5.43
2018-11-25T12:26:56.434Z,6.70
2018-11-25T12:32:01.026Z,5.63
2018-11-25T12:37:05.777Z,5.63
2018-11-25T12:42:10.278Z,5.57
2018-11-25T12:47:14.857Z,5.30
2018-11-25T12:52:19.977Z,5.87
2018-11-25T12:57:25.036Z,6.37
2018-11-25T13:02:29.518Z,6.07
2018-11-25T13:07:33.927Z,6.30
2018-11-25T13:12:38.345Z,6.37
2018-11-25T13:17:43.502Z,6.40
2018-11-25T13:22:48.550Z,5.30
2018-11-25T13:27:52.985Z,7.80
2018-11-25T13:32:59.285Z,6.73
2018-11-25T13:38:03.904Z,5.83
2018-11-25T13:43:08.415Z,6.50
2018-11-25T13:48:13.248Z,5.67
2018-11-25T13:53:17.632Z,4.37
2018-11-25T13:58:22.130Z,4.37
2018-11-25T14:03:36.168Z,5.27
2018-11-25T14:08:40.708Z,4.53
2018-11-25T14:13:45.690Z,4.80
2018-11-25T14:18:51.153Z,5.77
2018-11-25T14:23:56.668Z,6.40
2018-11-25T14:29:01.305Z,6.43
2018-11-25T14:34:06.785Z,5.07
2018-11-25T14:39:13.198Z,5.43
2018-11-25T14:44:18.562Z,4.97
2018-11-25T14:49:23.448Z,5.47
2018-11-25T14:54:28.068Z,5.47
2018-11-25T14:59:32.551Z,4.83
2018-11-25T15:04:37.228Z,5.43
2018-11-25T15:09:42.058Z,5.10
2018-11-25T15:14:46.714Z,5.07
2018-11-25T15:19:51.172Z,5.83
2018-11-25T15:24:55.773Z,4.83
2018-11-25T15:30:00.239Z,4.50
2018-11-25T15:35:05.610Z,5.97
2018-11-25T15:51:57.226Z,5.10
2018-11-25T15:57:01.850Z,5.17
2018-11-25T16:02:06.397Z,5.77
2018-11-25T16:07:12.313Z,6.30
2018-11-25T16:12:15.409Z,4.80
2018-11-25T16:17:20.358Z,6.67
2018-11-25T16:23:44.243Z,5.00
2018-11-25T16:28:50.396Z,5.60
2018-11-25T16:33:55.068Z,5.07
2018-11-25T16:39:08.853Z,5.60
2018-11-25T16:44:15.533Z,7.17
2018-11-25T16:49:19.898Z,5.83
2018-11-25T16:54:24.585Z,6.00
2018-11-25T16:59:29.546Z,5.40
2018-11-25T17:04:34.959Z,5.57
2018-11-25T17:09:39.808Z,5.57
2018-11-25T17:14:44.269Z,5.30
2018-11-25T17:19:48.804Z,4.97
2018-11-25T17:24:53.843Z,5.07
2018-11-25T17:29:58.702Z,5.10
2018-11-25T17:35:03.429Z,3.80
2018-11-25T17:40:09.275Z,4.50
2018-11-25T17:45:14.773Z,4.37
2018-11-25T17:50:21.691Z,4.07
2018-11-25T17:55:27.819Z,4.13
2018-11-25T18:00:38.727Z,2.93
2018-11-25T18:05:43.156Z,4.17
2018-11-25T18:10:48.524Z,3.60
2018-11-25T18:15:54.305Z,3.47
2018-11-25T18:21:00.826Z,3.60
2018-11-25T18:26:05.960Z,3.67
2018-11-25T18:31:11.219Z,4.00
2018-11-25T18:36:15.996Z,4.33
2018-11-25T18:41:21.331Z,4.37
2018-11-25T18:46:25.019Z,4.40
2018-11-25T18:51:30.030Z,3.67
2018-11-25T18:56:34.599Z,4.03
2018-11-25T19:01:46.640Z,3.90
2018-11-25T19:06:51.182Z,5.00
2018-11-25T19:11:56.034Z,4.60
2018-11-25T19:17:00.811Z,3.93
2018-11-25T19:22:12.223Z,4.47
2018-11-25T19:27:17.964Z,4.60
2018-11-25T19:32:23.658Z,4.80
2018-11-25T19:37:29.962Z,4.80
2018-11-25T19:42:34.513Z,4.83
2018-11-25T19:47:39.911Z,3.30
2018-11-25T19:52:45.499Z,3.83
2018-11-25T19:57:50.762Z,4.60
2018-11-25T20:02:56.244Z,4.10
2018-11-25T20:08:02.899Z,4.43
2018-11-25T20:13:08.566Z,4.23
2018-11-25T20:18:13.277Z,4.60
2018-11-25T20:23:18.285Z,4.83
2018-11-25T20:28:23.353Z,4.67
2018-11-25T20:33:33.382Z,4.87
2018-11-25T20:38:43.895Z,4.60
2018-11-25T20:43:48.945Z,4.33
2018-11-25T20:48:54.563Z,4.70
2018-11-25T20:54:01.301Z,4.30
2018-11-25T20:59:06.307Z,4.07
2018-11-25T21:04:11.016Z,4.63
2018-11-25T21:09:15.715Z,4.70
2018-11-25T21:14:20.437Z,5.27
2018-11-25T21:19:25.399Z,6.23
2018-11-25T21:24:30.204Z,5.53
2018-11-25T21:29:34.772Z,4.63
2018-11-25T21:34:40.099Z,4.90
2018-11-25T21:39:44.649Z,4.87
2018-11-25T21:44:49.520Z,4.97
2018-11-25T21:49:54.234Z,5.00
2018-11-25T21:54:58.659Z,4.73
2018-11-25T22:00:03.507Z,5.17
2018-11-25T22:05:08.823Z,4.97
2018-11-25T22:10:14.972Z,5.23
2018-11-25T22:15:22.562Z,5.70
2018-11-25T22:20:27.153Z,5.73
2018-11-25T22:25:32.300Z,5.13
2018-11-25T22:30:36.962Z,6.23
2018-11-25T22:37:10.520Z,4.60
2018-11-25T22:42:15.076Z,5.00
2018-11-25T22:47:20.543Z,5.33
2018-11-25T22:52:25.077Z,5.33
2018-11-25T22:57:29.736Z,5.53
2018-11-25T23:02:35.171Z,5.63
2018-11-25T23:07:41.035Z,5.07
2018-11-25T23:12:46.337Z,5.20
2018-11-25T23:17:51.129Z,5.43
2018-11-25T23:22:56.050Z,4.97
2018-11-25T23:28:00.993Z,5.10
2018-11-25T23:33:05.728Z,5.40
2018-11-25T23:38:10.041Z,5.57
2018-11-25T23:43:14.461Z,4.37
2018-11-25T23:48:19.029Z,5.23
2018-11-25T23:53:23.754Z,5.03
2018-11-25T23:58:28.788Z,4.97
